createdAt,value
2022-11-03T00:01:30.057Z,998.05
2022-11-03T00:06:29.804Z,997.93
2022-11-03T00:11:29.762Z,997.93
2022-11-03T00:16:29.722Z,997.89
2022-11-03T00:21:29.672Z,997.80
2022-11-03T00:26:29.601Z,997.88
2022-11-03T05:00:34.480Z,994.74
2022-11-03T05:05:34.226Z,994.70
2022-11-03T05:10:34.169Z,994.61
2022-11-03T05:15:41.186Z,994.50
2022-11-03T05:20:36.209Z,994.51
2022-11-03T05:25:34.002Z,994.38
2022-11-03T05:30:33.957Z,994.29
2022-11-03T05:35:33.914Z,994.23
2022-11-03T05:40:33.842Z,994.17
2022-11-03T05:45:33.793Z,994.06
2022-11-03T05:50:33.735Z,994.18
2022-11-03T05:55:33.698Z,994.07
2022-11-03T06:00:33.643Z,994.14
2022-11-03T06:05:33.594Z,994.01
2022-11-03T06:10:33.531Z,993.97
2022-11-03T06:15:33.511Z,993.81
2022-11-03T06:20:33.414Z,993.78
2022-11-03T06:25:33.362Z,993.82
2022-11-03T06:30:33.369Z,993.71
2022-11-03T06:35:33.274Z,993.54
2022-11-03T06:40:33.197Z,993.34
2022-11-03T06:45:33.148Z,993.46
2022-11-03T06:50:33.090Z,993.27
2022-11-03T06:55:33.087Z,993.31
2022-11-03T07:00:34.812Z,993.11
2022-11-03T07:05:33.931Z,993.01
2022-11-03T07:10:32.874Z,993.07
2022-11-03T07:15:32.852Z,992.89
2022-11-03T07:20:32.752Z,992.98
2022-11-03T07:25:32.718Z,993.07
2022-11-03T07:30:32.668Z,993.07
2022-11-03T07:35:53.207Z,993.00
2022-11-03T07:40:33.547Z,992.91
2022-11-03T07:45:32.494Z,992.84
2022-11-03T07:50:32.446Z,992.92
2022-11-03T07:55:32.388Z,992.85
2022-11-03T08:00:32.326Z,992.70
2022-11-03T08:05:32.284Z,992.51
2022-11-03T08:10:32.209Z,992.54
2022-11-03T08:15:32.193Z,992.43
2022-11-03T08:20:32.115Z,992.49
2022-11-03T08:25:32.038Z,992.35
2022-11-03T08:30:31.992Z,992.45
2022-11-03T08:35:34.052Z,992.35
2022-11-03T08:40:31.874Z,992.23
2022-11-03T08:45:31.825Z,992.20
2022-11-03T08:50:31.785Z,992.17
2022-11-03T08:55:31.802Z,992.07
2022-11-03T09:00:31.752Z,991.88
2022-11-03T09:05:31.619Z,991.87
2022-11-03T09:10:33.550Z,991.85
2022-11-03T09:15:31.511Z,991.70
2022-11-03T09:20:31.449Z,991.55
2022-11-03T09:25:31.370Z,991.51
2022-11-03T09:30:31.329Z,991.35
2022-11-03T09:35:31.297Z,991.09
2022-11-03T09:40:31.214Z,990.97
2022-11-03T09:45:31.169Z,990.88
2022-11-03T09:50:31.097Z,990.77
2022-11-03T09:55:31.079Z,990.79
2022-11-03T10:00:30.987Z,990.57
2022-11-03T10:05:30.953Z,990.52
2022-11-03T10:10:30.881Z,990.35
2022-11-03T10:15:30.925Z,990.28
2022-11-03T10:20:30.772Z,990.10
2022-11-03T10:25:30.738Z,989.92
2022-11-03T10:30:36.300Z,990.00
2022-11-03T10:35:31.655Z,989.99
2022-11-03T10:40:47.342Z,989.94
2022-11-03T10:45:31.563Z,989.92
2022-11-03T10:50:30.470Z,989.60
2022-11-03T10:55:30.583Z,989.46
2022-11-03T11:00:30.356Z,989.36
2022-11-03T11:05:30.276Z,989.18
2022-11-03T11:10:30.237Z,989.05
2022-11-03T11:15:37.248Z,988.92
2022-11-03T11:20:30.127Z,988.89
2022-11-03T11:25:30.073Z,989.07
2022-11-03T11:30:30.020Z,988.95
2022-11-03T11:35:29.984Z,988.91
2022-11-03T11:40:29.894Z,988.92
2022-11-03T11:45:29.851Z,988.96
2022-11-03T11:50:29.803Z,988.90
2022-11-03T11:55:29.781Z,988.62
2022-11-03T12:00:29.767Z,988.53
2022-11-03T12:05:29.626Z,988.31
2022-11-03T12:10:29.585Z,988.19
2022-11-03T12:15:29.527Z,987.86
2022-11-03T12:20:29.464Z,987.78
2022-11-03T12:25:29.408Z,987.65
2022-11-03T12:30:29.360Z,987.49
2022-11-03T12:35:29.323Z,987.42
2022-11-03T12:40:29.242Z,987.27
2022-11-03T12:45:29.192Z,987.22
2022-11-03T12:50:29.123Z,986.99
2022-11-03T12:55:29.146Z,986.82
2022-11-03T13:00:29.023Z,986.77
2022-11-03T13:05:28.967Z,986.69
2022-11-03T13:10:28.916Z,986.46
2022-11-03T13:15:28.881Z,986.33
2022-11-03T13:20:28.809Z,986.19
2022-11-03T13:25:28.796Z,986.20
2022-11-03T13:30:28.727Z,986.00
2022-11-03T13:35:28.693Z,985.82
2022-11-03T13:40:55.022Z,985.62
2022-11-03T13:45:29.534Z,985.55
2022-11-03T13:50:28.542Z,985.41
2022-11-03T13:55:43.867Z,985.27
2022-11-03T14:00:29.368Z,985.13
2022-11-03T14:05:28.294Z,985.22
2022-11-03T14:10:28.355Z,985.07
2022-11-03T14:15:28.208Z,984.96
2022-11-03T14:25:28.068Z,984.91
2022-11-03T14:30:28.028Z,984.79
2022-11-03T14:35:27.996Z,984.66
2022-11-03T14:40:27.928Z,984.68
2022-11-03T14:45:27.869Z,984.69
2022-11-03T14:50:27.806Z,984.81
2022-11-03T14:55:27.765Z,984.99
2022-11-03T15:00:27.713Z,984.96
2022-11-03T15:05:27.631Z,984.97
2022-11-03T15:10:27.581Z,984.84
2022-11-03T15:15:27.590Z,984.81
2022-11-03T15:20:27.481Z,984.64
2022-11-03T15:25:30.209Z,984.63
2022-11-03T15:30:28.359Z,984.59
2022-11-03T15:35:27.396Z,984.51
2022-11-03T15:40:27.242Z,984.27
2022-11-03T15:45:27.200Z,984.04
2022-11-03T15:50:27.149Z,983.89
2022-11-03T15:55:27.103Z,983.86
2022-11-03T16:00:27.042Z,983.75
2022-11-03T16:05:26.993Z,983.74
2022-11-03T16:10:26.957Z,983.68
2022-11-03T16:15:26.883Z,983.68
2022-11-03T16:20:26.836Z,983.56
2022-11-03T16:25:26.776Z,983.52
2022-11-03T16:30:26.724Z,983.42
2022-11-03T16:35:26.689Z,983.60
2022-11-03T16:40:26.629Z,983.48
2022-11-03T16:45:26.600Z,983.41
2022-11-03T16:50:26.508Z,983.28
2022-11-03T16:55:26.465Z,983.23
2022-11-03T17:00:26.400Z,983.22
2022-11-03T17:05:26.374Z,983.18
2022-11-03T17:10:26.284Z,983.14
2022-11-03T17:15:26.269Z,983.13
2022-11-03T17:20:26.187Z,982.88
2022-11-03T17:25:26.154Z,982.78
2022-11-03T17:30:26.064Z,982.76
2022-11-03T17:35:26.037Z,982.55
2022-11-03T17:40:25.972Z,982.60
2022-11-03T17:45:25.919Z,982.40
2022-11-03T17:50:25.871Z,982.47
2022-11-03T17:55:25.825Z,982.21
2022-11-03T18:00:25.759Z,982.35
2022-11-03T18:05:25.710Z,982.36
2022-11-03T18:10:25.638Z,982.34
2022-11-03T18:15:25.614Z,982.34
2022-11-03T18:20:25.546Z,982.28
2022-11-03T18:25:25.498Z,982.29
2022-11-03T18:30:25.562Z,982.23
2022-11-03T18:35:25.405Z,982.16
2022-11-03T18:40:25.329Z,982.11
2022-11-03T18:45:25.284Z,982.13
2022-11-03T18:50:25.225Z,982.07
2022-11-03T18:55:25.187Z,982.02
2022-11-03T19:00:25.119Z,982.04
2022-11-03T19:05:25.063Z,982.06
2022-11-03T19:10:25.013Z,981.94
2022-11-03T19:15:24.990Z,981.95
2022-11-03T19:20:24.903Z,981.83
2022-11-03T19:25:24.848Z,981.80
2022-11-03T19:30:24.793Z,981.78
2022-11-03T19:35:24.758Z,981.71
2022-11-03T19:40:24.697Z,981.62
2022-11-03T19:45:24.622Z,981.59
2022-11-03T19:50:24.783Z,981.48
2022-11-03T19:55:24.532Z,981.38
2022-11-03T20:00:24.474Z,981.30
2022-11-03T20:05:24.421Z,981.37
2022-11-03T20:10:24.368Z,981.31
2022-11-03T20:15:24.332Z,981.31
2022-11-03T20:20:24.260Z,981.33
2022-11-03T20:25:24.209Z,981.34
2022-11-03T20:30:24.152Z,981.18
2022-11-03T20:35:24.456Z,981.13
2022-11-03T20:40:24.047Z,981.16
2022-11-03T20:45:23.989Z,981.25
2022-11-03T20:50:23.939Z,981.34
2022-11-03T20:55:23.910Z,981.30
2022-11-03T21:00:23.845Z,981.46
2022-11-03T21:05:23.782Z,981.36
2022-11-03T21:10:23.726Z,981.44
2022-11-03T21:15:28.090Z,981.46
2022-11-03T21:20:24.615Z,981.47
2022-11-03T21:25:24.104Z,981.53
2022-11-03T21:30:23.593Z,981.55
2022-11-03T21:35:23.477Z,981.51
2022-11-03T21:40:23.400Z,981.59
2022-11-03T21:45:23.352Z,981.59
2022-11-03T21:50:23.298Z,981.61
2022-11-03T21:55:23.260Z,981.63
2022-11-03T22:00:23.188Z,981.46
2022-11-03T22:05:23.133Z,981.79
2022-11-03T22:10:23.074Z,981.62
2022-11-03T22:15:23.047Z,981.76
2022-11-03T22:20:22.971Z,981.82
2022-11-03T22:25:22.918Z,981.79
2022-11-03T22:30:22.871Z,981.84
2022-11-03T22:35:22.972Z,981.97
2022-11-03T22:40:22.754Z,982.05
2022-11-03T22:45:22.701Z,982.04
2022-11-03T22:50:22.649Z,982.13
2022-11-03T22:55:22.622Z,982.28
2022-11-03T23:00:22.554Z,982.42
2022-11-03T23:05:22.487Z,982.67
2022-11-03T23:10:22.430Z,982.57
2022-11-03T23:15:22.400Z,982.63
2022-11-03T23:20:29.379Z,982.74
2022-11-03T23:25:22.275Z,982.77
2022-11-03T23:30:22.222Z,983.13
2022-11-03T23:35:22.181Z,983.33
2022-11-03T23:40:22.120Z,983.35
2022-11-03T23:45:22.056Z,983.38
2022-11-03T23:50:22.009Z,983.38
2022-11-03T23:55:21.966Z,983.49
